createdAt,value
2017-07-10T00:00:02.505Z,88.59
2017-07-10T00:05:02.335Z,88.31
2017-07-10T00:10:02.526Z,88.49
2017-07-10T00:15:02.725Z,88.41
2017-07-10T00:20:02.524Z,88.68
2017-07-10T00:25:02.818Z,89.04
2017-07-10T00:30:03.003Z,88.08
2017-07-10T00:35:02.072Z,88.49
2017-07-10T00:40:02.307Z,88.88
2017-07-10T00:45:02.529Z,88.54
2017-07-10T00:50:02.818Z,88.73
2017-07-10T00:55:02.999Z,88.45
2017-07-10T01:00:02.225Z,88.2
2017-07-10T01:05:02.610Z,88.68
2017-07-10T01:10:02.828Z,88.84
2017-07-10T01:15:02.021Z,88.8
2017-07-10T01:20:02.540Z,88.89
2017-07-10T01:25:02.732Z,88.87
2017-07-10T01:30:03.002Z,89.15
2017-07-10T01:35:02.721Z,89.57
2017-07-10T01:40:02.913Z,89.49
2017-07-10T01:45:02.091Z,89.55
2017-07-10T01:50:02.729Z,88.96
2017-07-10T01:55:02.950Z,88.97
2017-07-10T02:00:02.127Z,89.23
2017-07-10T02:05:02.759Z,89.57
2017-07-10T02:10:03.048Z,89.76
2017-07-10T02:15:02.247Z,90.13
2017-07-10T02:20:02.294Z,90.39
2017-07-10T02:25:02.509Z,90.89
2017-07-10T02:30:02.708Z,90.61
2017-07-10T02:35:03.000Z,90.35
2017-07-10T02:40:02.217Z,90.6
2017-07-10T02:45:02.426Z,91.03
2017-07-10T02:50:02.010Z,91.06
2017-07-10T02:55:02.245Z,91.3
2017-07-10T03:00:02.458Z,91.36
2017-07-10T03:05:03.018Z,91.46
2017-07-10T03:10:02.223Z,91.8
2017-07-10T03:15:02.454Z,91.23
2017-07-10T03:20:02.451Z,92.06
2017-07-10T03:25:02.671Z,91.65
2017-07-10T03:30:02.930Z,91.74
2017-07-10T03:35:02.300Z,91.48
2017-07-10T03:40:02.507Z,92.09
2017-07-10T03:45:02.720Z,92.16
2017-07-10T03:50:02.381Z,93.15
2017-07-10T03:55:02.592Z,93.16
2017-07-10T04:00:02.805Z,93.23
2017-07-10T04:05:02.169Z,93.16
2017-07-10T04:10:02.363Z,93.23
2017-07-10T04:15:02.562Z,93.05
2017-07-10T04:20:02.591Z,93.19
2017-07-10T04:25:02.855Z,93.25
2017-07-10T04:30:02.048Z,93.17
2017-07-10T04:35:02.048Z,93.16
2017-07-10T04:40:02.256Z,92.96
2017-07-10T04:45:02.438Z,92.7
2017-07-10T04:50:03.046Z,92.83
2017-07-10T04:55:02.228Z,92.98
2017-07-10T05:00:02.526Z,93.71
2017-07-10T05:05:02.104Z,94.38
2017-07-10T05:10:02.367Z,94.64
2017-07-10T05:15:02.570Z,94.44
2017-07-10T05:20:02.747Z,94.36
2017-07-10T05:25:03.015Z,94.68
2017-07-10T05:30:02.181Z,95.51
2017-07-10T05:35:02.770Z,96.59
2017-07-10T05:40:02.971Z,95.55
2017-07-10T05:45:02.236Z,96.79
2017-07-10T05:50:02.446Z,98.2
2017-07-10T05:55:02.625Z,99.19
2017-07-10T06:00:02.801Z,99.92
2017-07-10T06:05:02.569Z,100.44
2017-07-10T06:10:02.804Z,100.78
2017-07-10T06:15:03.027Z,101.32
2017-07-10T06:20:02.538Z,101.52
2017-07-10T06:25:02.826Z,102.27
2017-07-10T06:30:02.015Z,102.42
2017-07-10T06:35:02.383Z,102.55
2017-07-10T06:40:02.562Z,102.55
2017-07-10T06:45:02.755Z,102.35
2017-07-10T06:50:02.705Z,102.08
2017-07-10T06:55:02.888Z,101.33
2017-07-10T07:00:02.124Z,101.35
2017-07-10T07:05:02.740Z,101.56
2017-07-10T07:10:02.932Z,101.41
2017-07-10T07:15:02.163Z,101.35
2017-07-10T07:20:02.695Z,101.66
2017-07-10T07:25:02.902Z,100.8
2017-07-10T07:30:02.095Z,101.43
2017-07-10T07:35:02.508Z,101.58
2017-07-10T07:40:02.750Z,101.01
2017-07-10T07:45:02.926Z,100.95
2017-07-10T07:50:02.255Z,100.97
2017-07-10T07:55:02.462Z,100.46
2017-07-10T08:00:02.660Z,100.84
2017-07-10T08:05:02.107Z,101.26
2017-07-10T08:10:02.365Z,99.9
2017-07-10T08:15:02.564Z,101.49
2017-07-10T08:20:02.796Z,101.11
2017-07-10T08:25:02.999Z,100.81
2017-07-10T08:30:02.163Z,99.49
2017-07-10T08:35:02.361Z,99.14
2017-07-10T08:40:02.559Z,99.3
2017-07-10T08:45:02.769Z,100.32
2017-07-10T08:50:02.445Z,100.56
2017-07-10T08:55:02.626Z,100.93
2017-07-10T09:00:02.831Z,100.91
2017-07-10T09:05:02.249Z,100.99
2017-07-10T09:10:02.454Z,101.23
2017-07-10T09:15:02.659Z,101.4
2017-07-10T09:20:02.779Z,101.87
2017-07-10T09:25:02.971Z,101.57
2017-07-10T09:30:02.166Z,100.95
2017-07-10T09:35:02.396Z,100.22
2017-07-10T09:40:02.593Z,100.44
2017-07-10T09:45:02.797Z,100.88
2017-07-10T09:50:03.054Z,100.75
2017-07-10T09:55:02.302Z,100.63
2017-07-10T10:00:02.484Z,101
2017-07-10T10:05:02.747Z,101.11
2017-07-10T10:10:02.940Z,101.47
2017-07-10T10:15:02.184Z,102.04
2017-07-10T10:20:02.311Z,101.83
2017-07-10T10:25:02.513Z,101.62
2017-07-10T10:30:02.689Z,102.03
2017-07-10T10:35:02.911Z,101.81
2017-07-10T10:40:02.097Z,101.77
2017-07-10T10:45:02.328Z,102.29
2017-07-10T10:50:02.538Z,102.32
2017-07-10T10:55:02.731Z,101.97
2017-07-10T11:00:02.928Z,101.43
2017-07-10T11:05:02.554Z,101.59
2017-07-10T11:10:02.816Z,101.85
2017-07-10T11:15:02.988Z,102.3
2017-07-10T11:20:02.548Z,102.52
2017-07-10T11:25:02.845Z,102.81
2017-07-10T11:30:02.033Z,102.93
2017-07-10T11:35:02.352Z,103.02
2017-07-10T11:40:02.569Z,102.37
2017-07-10T11:45:02.796Z,103.12
2017-07-10T11:50:02.987Z,103.42
2017-07-10T11:55:02.188Z,102.27
2017-07-10T12:00:02.375Z,100.45
2017-07-10T12:05:02.495Z,99.74
2017-07-10T12:10:02.692Z,99.27
2017-07-10T12:15:02.872Z,99.9
2017-07-10T12:20:02.387Z,99
2017-07-10T12:25:02.585Z,99.46
2017-07-10T12:30:02.801Z,98.3
2017-07-10T12:35:02.989Z,98.66
2017-07-10T12:40:02.218Z,98.45
2017-07-10T12:45:02.414Z,97.74
2017-07-10T12:50:02.957Z,98.64
2017-07-10T12:55:02.198Z,98.81
2017-07-10T13:00:02.433Z,99.82
2017-07-10T13:05:02.720Z,99.21
2017-07-10T13:10:02.924Z,99.77
2017-07-10T13:15:02.135Z,99.94
2017-07-10T13:20:02.762Z,100.17
2017-07-10T13:25:02.994Z,100.28
2017-07-10T13:30:02.172Z,100.82
2017-07-10T13:35:02.369Z,100.13
2017-07-10T13:40:02.572Z,100.87
2017-07-10T13:45:02.758Z,100.24
2017-07-10T13:50:02.872Z,99.42
2017-07-10T13:55:02.087Z,99.97
2017-07-10T14:00:02.274Z,99.69
2017-07-10T14:05:02.315Z,100.3
2017-07-10T14:10:02.573Z,98.93
2017-07-10T14:15:02.754Z,100.34
2017-07-10T14:20:02.477Z,100.78
2017-07-10T14:25:02.659Z,99.96
2017-07-10T14:30:02.859Z,100
2017-07-10T14:35:02.086Z,99.11
2017-07-10T14:40:02.341Z,99.35
2017-07-10T14:45:02.520Z,99.4
2017-07-10T14:50:02.739Z,100.33
2017-07-10T14:55:02.948Z,100.45
2017-07-10T15:00:02.120Z,100.28
2017-07-10T15:05:02.713Z,99.6
2017-07-10T15:10:02.929Z,99.59
2017-07-10T15:15:02.183Z,99.14
2017-07-10T15:20:02.712Z,99.43
2017-07-10T15:25:02.919Z,99.08
2017-07-10T15:30:02.123Z,99.24
2017-07-10T15:35:02.348Z,99.07
2017-07-10T15:40:02.613Z,98.06
2017-07-10T15:45:02.811Z,98.5
2017-07-10T15:50:02.605Z,98.11
2017-07-10T15:55:02.836Z,97.93
2017-07-10T16:00:03.084Z,98.03
2017-07-10T16:05:02.573Z,98.14
2017-07-10T16:10:02.793Z,98
2017-07-10T16:15:02.955Z,97.69
2017-07-10T16:20:02.426Z,97.25
2017-07-10T16:25:02.659Z,97.23
2017-07-10T16:30:02.803Z,98.08
2017-07-10T16:35:03.039Z,97.53
2017-07-10T16:40:02.249Z,97.69
2017-07-10T16:45:02.410Z,98.62
2017-07-10T16:50:02.437Z,97.82
2017-07-10T16:55:02.640Z,97.75
2017-07-10T17:00:02.836Z,98.66
2017-07-10T17:05:02.448Z,97.95
2017-07-10T17:10:02.665Z,97.95
2017-07-10T17:15:02.841Z,97.97
2017-07-10T17:20:02.374Z,97.32
2017-07-10T17:25:02.569Z,96.83
2017-07-10T17:30:02.752Z,96.57
2017-07-10T17:35:03.047Z,96.21
2017-07-10T17:40:02.249Z,96.02
2017-07-10T17:45:02.451Z,95.7
2017-07-10T17:50:02.681Z,96.03
2017-07-10T17:55:02.869Z,96.25
2017-07-10T18:00:02.043Z,95.48
2017-07-10T18:05:02.887Z,95.15
2017-07-10T18:10:02.097Z,96.28
2017-07-10T18:15:02.262Z,96.15
2017-07-10T18:20:02.971Z,96.07
2017-07-10T18:25:02.213Z,95.93
2017-07-10T18:30:02.367Z,96.22
2017-07-10T18:35:02.836Z,96.08
2017-07-10T18:40:02.057Z,96.22
2017-07-10T18:45:02.245Z,96.55
2017-07-10T18:50:02.469Z,97.24
2017-07-10T18:55:02.636Z,97.64
2017-07-10T19:00:02.906Z,97.83
2017-07-10T19:05:02.776Z,98.22
2017-07-10T19:10:02.992Z,98.37
2017-07-10T19:15:02.181Z,98.48
2017-07-10T19:20:02.660Z,98.43
2017-07-10T19:25:02.901Z,98.39
2017-07-10T19:30:02.106Z,98.57
2017-07-10T19:35:02.529Z,98.5
2017-07-10T19:40:02.768Z,98.89
2017-07-10T19:45:02.953Z,99.33
2017-07-10T19:50:02.191Z,99.59
2017-07-10T19:55:02.381Z,99.57
2017-07-10T20:00:02.577Z,99.88
2017-07-10T20:05:02.317Z,100.04
2017-07-10T20:10:02.663Z,100.15
2017-07-10T20:15:02.913Z,100.01
2017-07-10T20:20:02.304Z,100.11
2017-07-10T20:25:02.509Z,100.53
2017-07-10T20:30:02.761Z,100.46
2017-07-10T20:35:02.286Z,100.27
2017-07-10T20:40:02.493Z,100.59
2017-07-10T20:45:02.753Z,100.14
2017-07-10T20:50:02.303Z,100.3
2017-07-10T20:55:02.625Z,100.78
2017-07-10T21:00:02.867Z,100.81
2017-07-10T21:05:02.312Z,101.09
2017-07-10T21:10:02.521Z,101.13
2017-07-10T21:15:02.724Z,101.02
2017-07-10T21:20:02.218Z,101.27
2017-07-10T21:25:02.450Z,101.43
2017-07-10T21:30:02.605Z,101.69
2017-07-10T21:35:02.980Z,101.48
2017-07-10T21:40:02.165Z,101.75
2017-07-10T21:45:02.458Z,101.84
2017-07-10T21:50:02.193Z,102.17
2017-07-10T21:55:02.371Z,102.21
2017-07-10T22:00:02.695Z,102.17
2017-07-10T22:05:02.141Z,102.1
2017-07-10T22:10:02.381Z,101.98
2017-07-10T22:15:02.544Z,102.27
2017-07-10T22:20:03.026Z,102.42
2017-07-10T22:25:02.217Z,102.32
2017-07-10T22:30:02.454Z,102.22
2017-07-10T22:35:02.403Z,102.39
2017-07-10T22:40:02.621Z,102.35
2017-07-10T22:45:02.819Z,102.17
2017-07-10T22:50:02.973Z,102.1
2017-07-10T22:55:02.161Z,102.11
2017-07-10T23:00:02.372Z,102.46
2017-07-10T23:05:02.911Z,102.44
2017-07-10T23:10:02.094Z,102.38
2017-07-10T23:15:02.337Z,102.23
2017-07-10T23:20:02.701Z,102.46
2017-07-10T23:25:02.907Z,102.37
2017-07-10T23:30:02.075Z,102.42
2017-07-10T23:35:02.103Z,102.58
2017-07-10T23:40:02.289Z,102.62
2017-07-10T23:45:02.470Z,102.76
2017-07-10T23:50:02.787Z,102.68
2017-07-10T23:55:02.987Z,102.82
